createdAt,value
2022-08-11T00:06:07.775Z,21.9
2022-08-11T00:20:41.094Z,22
2022-08-11T00:35:50.092Z,21.4
2022-08-11T00:50:00.445Z,21.3
2022-08-11T01:04:27.694Z,21.1
2022-08-11T01:18:55.331Z,21
2022-08-11T01:33:20.680Z,21
2022-08-11T01:47:52.831Z,20.9
2022-08-11T02:02:16.819Z,20.7
2022-08-11T02:16:51.964Z,20.5
2022-08-11T02:31:15.592Z,20.3
2022-08-11T02:46:28.256Z,20.1
2022-08-11T03:00:54.030Z,19.9
2022-08-11T03:15:20.614Z,19.8
2022-08-11T03:29:47.410Z,19.5
2022-08-11T03:44:21.126Z,19.3
2022-08-11T03:58:50.453Z,19.6
2022-08-11T04:13:13.188Z,19.2
2022-08-11T04:27:46.160Z,19.4
2022-08-11T04:42:17.054Z,19.8
2022-08-11T04:56:40.506Z,20
2022-08-11T05:11:14.105Z,19.9
2022-08-11T05:26:45.818Z,19.8
2022-08-11T05:40:50.865Z,20
2022-08-11T05:55:26.225Z,20
2022-08-11T06:09:55.026Z,20.2
2022-08-11T06:24:19.005Z,20.8
2022-08-11T06:38:46.333Z,21.4
2022-08-11T06:53:14.827Z,21.7
2022-08-11T07:07:44.220Z,22.2
2022-08-11T07:22:12.517Z,22.8
2022-08-11T07:36:43.094Z,24
2022-08-11T07:51:37.218Z,30.9
2022-08-11T08:06:15.344Z,31.6
2022-08-11T08:20:47.558Z,31.1
2022-08-11T08:35:16.668Z,33.2
2022-08-11T08:49:47.616Z,33.6
2022-08-11T09:04:20.429Z,34.1
2022-08-11T09:18:42.443Z,33.8
2022-08-11T09:33:09.257Z,33
2022-08-11T09:47:38.168Z,32.5
2022-08-11T10:01:58.304Z,32.2
2022-08-11T10:16:25.905Z,32.5
2022-08-11T10:30:53.351Z,32.6
2022-08-11T10:45:26.294Z,32.4
2022-08-11T10:59:56.881Z,33.1
2022-08-11T11:14:19.965Z,33.1
2022-08-11T11:28:48.731Z,32.6
2022-08-11T11:43:19.649Z,32.8
2022-08-11T11:57:58.416Z,33.1
2022-08-11T12:12:19.929Z,33.6
2022-08-11T12:26:54.457Z,33.3
2022-08-11T12:41:35.533Z,33.5
2022-08-11T12:56:03.493Z,33.4
2022-08-11T13:10:29.363Z,33.7
2022-08-11T13:24:57.617Z,33.7
2022-08-11T13:39:26.245Z,34.2
2022-08-11T13:53:54.165Z,34
2022-08-11T14:08:37.166Z,33.3
2022-08-11T14:23:02.253Z,33.9
2022-08-11T14:37:28.073Z,33.6
2022-08-11T14:51:54.537Z,33.1
2022-08-11T15:06:21.816Z,32.9
2022-08-11T15:20:53.750Z,33
2022-08-11T15:35:18.088Z,33
2022-08-11T15:50:10.029Z,32.9
2022-08-11T16:04:25.986Z,33.1
2022-08-11T16:18:58.563Z,32.9
2022-08-11T16:33:49.388Z,32.7
2022-08-11T16:48:32.875Z,32.5
2022-08-11T17:02:48.141Z,32.2
2022-08-11T17:17:16.534Z,32.2
2022-08-11T17:31:49.117Z,32
2022-08-11T17:46:17.342Z,31.7
2022-08-11T18:00:39.809Z,31.5
2022-08-11T18:15:05.283Z,31.1
2022-08-11T18:29:41.762Z,30.2
2022-08-11T18:44:01.019Z,29.7
2022-08-11T18:58:25.259Z,29.4
2022-08-11T19:12:57.079Z,28.6
2022-08-11T19:27:20.024Z,28.1
2022-08-11T19:42:00.520Z,27.8
2022-08-11T19:56:18.199Z,27.1
2022-08-11T20:10:44.493Z,26.8
2022-08-11T20:25:11.692Z,26.3
2022-08-11T20:39:38.764Z,25.2
2022-08-11T20:54:05.932Z,25.6
2022-08-11T21:08:31.408Z,24.6
2022-08-11T21:22:58.904Z,25
2022-08-11T21:37:33.557Z,24.6
2022-08-11T21:52:03.527Z,24.2
2022-08-11T22:06:26.721Z,23.7
2022-08-11T22:20:53.575Z,23.4
2022-08-11T22:35:21.310Z,23.1
2022-08-11T22:49:57.385Z,23.1
2022-08-11T23:04:24.659Z,22.9
2022-08-11T23:18:53.172Z,22.7
2022-08-11T23:33:16.711Z,22.7
2022-08-11T23:47:50.069Z,22.5
